createdAt,value
2022-12-12T00:02:34.305Z,-2.60
2022-12-12T00:05:21.901Z,-2.70
2022-12-12T00:08:09.434Z,-2.80
2022-12-12T00:10:57.778Z,-2.80
2022-12-12T00:13:45.765Z,-2.80
2022-12-12T00:16:34.294Z,-2.90
2022-12-12T00:19:23.773Z,-2.90
2022-12-12T00:22:11.403Z,-3.00
2022-12-12T00:24:58.845Z,-2.90
2022-12-12T00:27:47.140Z,-3.00
2022-12-12T00:30:35.315Z,-3.00
2022-12-12T00:33:22.910Z,-3.00
2022-12-12T00:36:12.234Z,-3.00
2022-12-12T00:39:01.038Z,-3.00
2022-12-12T00:41:50.106Z,-2.90
2022-12-12T00:44:37.727Z,-2.80
2022-12-12T00:47:25.539Z,-2.80
2022-12-12T00:50:13.916Z,-2.90
2022-12-12T00:53:02.853Z,-2.90
2022-12-12T00:55:56.025Z,-2.90
2022-12-12T00:58:43.530Z,-2.90
2022-12-12T01:01:32.647Z,-2.90
2022-12-12T01:04:20.377Z,-3.00
2022-12-12T01:07:08.611Z,-3.00
2022-12-12T01:09:57.828Z,-3.10
2022-12-12T01:12:45.975Z,-3.10
2022-12-12T01:15:33.527Z,-3.10
2022-12-12T01:18:22.226Z,-3.10
2022-12-12T01:21:10.206Z,-2.20
2022-12-12T01:23:58.022Z,-3.10
2022-12-12T01:26:46.917Z,-3.10
2022-12-12T01:29:34.762Z,-3.00
2022-12-12T01:32:22.728Z,-3.00
2022-12-12T01:35:11.743Z,-3.00
2022-12-12T01:37:59.747Z,-2.40
2022-12-12T01:40:47.926Z,-3.20
2022-12-12T01:43:37.299Z,-3.00
2022-12-12T01:46:33.546Z,-3.10
2022-12-12T01:49:24.922Z,-3.10
2022-12-12T01:52:15.342Z,-2.50
2022-12-12T01:55:06.849Z,-3.20
2022-12-12T01:57:55.974Z,-3.20
2022-12-12T02:00:45.421Z,-3.20
2022-12-12T02:03:33.964Z,-3.20
2022-12-12T02:06:24.178Z,-3.20
2022-12-12T02:09:13.771Z,-3.30
2022-12-12T02:12:01.358Z,-3.30
2022-12-12T02:14:50.952Z,-2.70
2022-12-12T02:17:51.464Z,-3.30
2022-12-12T02:20:44.359Z,-3.30
2022-12-12T02:23:43.171Z,-3.30
2022-12-12T02:26:54.934Z,-3.30
2022-12-12T02:29:55.619Z,-3.30
2022-12-12T02:32:54.877Z,-3.40
2022-12-12T02:35:47.671Z,-3.40
2022-12-12T02:38:39.019Z,-3.40
2022-12-12T02:41:29.685Z,-3.50
2022-12-12T02:44:23.097Z,-3.00
2022-12-12T02:47:13.937Z,-3.60
2022-12-12T02:50:06.074Z,-3.60
2022-12-12T02:52:53.851Z,-3.60
2022-12-12T02:55:42.538Z,-3.80
2022-12-12T02:58:30.166Z,-3.70
2022-12-12T03:01:25.446Z,-3.70
2022-12-12T03:04:31.377Z,-3.70
2022-12-12T03:07:44.655Z,-3.80
2022-12-12T03:10:41.287Z,-3.90
2022-12-12T03:13:34.610Z,-3.90
2022-12-12T03:16:25.907Z,-3.90
2022-12-12T03:19:16.680Z,-3.90
2022-12-12T03:22:09.855Z,-3.90
2022-12-12T03:25:03.470Z,-4.00
2022-12-12T03:27:54.850Z,-4.00
2022-12-12T03:30:45.571Z,-4.00
2022-12-12T03:33:34.932Z,-4.00
2022-12-12T03:36:25.716Z,-4.10
2022-12-12T03:39:14.990Z,-4.00
2022-12-12T03:42:07.314Z,-4.10
2022-12-12T03:44:59.069Z,-4.20
2022-12-12T03:47:50.533Z,-4.20
2022-12-12T03:50:43.176Z,-4.20
2022-12-12T03:53:37.845Z,-4.30
2022-12-12T03:56:28.818Z,-5.60
2022-12-12T03:59:24.151Z,-4.40
2022-12-12T04:02:18.191Z,-4.50
2022-12-12T04:05:09.749Z,-2.00
2022-12-12T04:08:00.253Z,-4.60
2022-12-12T04:11:10.849Z,-4.50
2022-12-12T04:14:03.794Z,-4.40
2022-12-12T04:17:01.009Z,-4.30
2022-12-12T04:20:09.976Z,-4.40
2022-12-12T04:23:17.388Z,-4.40
2022-12-12T04:26:30.564Z,-4.40
2022-12-12T04:29:24.207Z,-4.30
2022-12-12T04:32:16.782Z,-6.60
2022-12-12T04:35:07.428Z,-4.40
2022-12-12T04:37:56.448Z,-4.40
2022-12-12T04:40:45.232Z,-4.40
2022-12-12T04:43:35.932Z,-4.40
2022-12-12T04:46:25.815Z,-4.40
2022-12-12T04:49:18.554Z,-4.40
2022-12-12T04:52:08.057Z,-4.40
2022-12-12T04:55:00.919Z,-4.40
2022-12-12T04:57:50.966Z,-4.40
2022-12-12T05:00:42.870Z,-4.50
2022-12-12T05:03:34.376Z,-4.30
2022-12-12T05:06:27.704Z,-4.80
2022-12-12T05:09:16.919Z,-4.50
2022-12-12T05:12:05.232Z,-4.50
2022-12-12T05:14:53.532Z,-3.80
2022-12-12T05:17:43.647Z,-4.60
2022-12-12T05:20:31.222Z,-4.60
2022-12-12T05:23:20.902Z,-4.60
2022-12-12T05:26:10.240Z,-4.60
2022-12-12T05:29:03.646Z,-4.70
2022-12-12T05:31:55.619Z,-4.80
2022-12-12T05:34:44.409Z,-4.80
2022-12-12T05:37:32.099Z,-4.90
2022-12-12T05:40:21.985Z,-5.00
2022-12-12T05:43:10.140Z,-5.10
2022-12-12T05:45:57.836Z,-4.90
2022-12-12T05:48:50.650Z,-5.00
2022-12-12T05:51:41.939Z,-5.00
2022-12-12T05:54:30.384Z,-5.00
2022-12-12T05:57:19.287Z,-5.00
2022-12-12T06:00:09.182Z,-5.00
2022-12-12T06:02:56.998Z,-6.50
2022-12-12T06:05:44.685Z,-5.10
2022-12-12T06:08:32.153Z,-5.20
2022-12-12T06:11:20.533Z,-5.30
2022-12-12T06:14:09.767Z,-4.90
2022-12-12T06:16:57.809Z,-5.30
2022-12-12T06:19:46.503Z,-5.30
2022-12-12T06:22:36.085Z,-5.30
2022-12-12T06:25:24.055Z,-5.30
2022-12-12T06:28:24.525Z,-5.30
2022-12-12T06:31:14.212Z,-5.80
2022-12-12T06:34:02.177Z,-2.80
2022-12-12T06:36:50.073Z,-5.00
2022-12-12T06:39:38.092Z,-5.20
2022-12-12T06:42:25.768Z,-5.30
2022-12-12T06:45:15.428Z,-5.30
2022-12-12T06:48:05.312Z,-5.40
2022-12-12T06:50:54.305Z,-5.40
2022-12-12T06:53:42.529Z,-5.50
2022-12-12T06:56:30.151Z,-5.40
2022-12-12T06:59:18.046Z,-5.50
2022-12-12T07:02:05.859Z,-5.50
2022-12-12T07:04:55.557Z,-4.60
2022-12-12T07:07:43.975Z,-5.60
2022-12-12T07:10:31.649Z,-5.60
2022-12-12T07:13:19.266Z,-5.50
2022-12-12T07:16:09.689Z,-5.60
2022-12-12T07:18:57.743Z,-5.60
2022-12-12T07:21:47.144Z,-5.60
2022-12-12T07:24:35.237Z,-5.60
2022-12-12T07:27:22.815Z,-5.50
2022-12-12T07:30:11.784Z,-5.80
2022-12-12T07:33:00.256Z,-5.60
2022-12-12T07:35:48.106Z,-5.40
2022-12-12T07:38:39.867Z,-5.40
2022-12-12T07:41:27.862Z,-5.30
2022-12-12T07:44:16.775Z,-5.40
2022-12-12T07:47:04.708Z,-5.40
2022-12-12T07:49:52.195Z,-5.30
2022-12-12T07:52:39.670Z,-5.50
2022-12-12T07:55:28.681Z,-5.50
2022-12-12T07:58:16.929Z,-5.40
2022-12-12T08:01:14.071Z,-5.40
2022-12-12T08:04:05.665Z,-5.20
2022-12-12T08:07:00.687Z,-5.10
2022-12-12T08:09:51.634Z,-5.00
2022-12-12T08:12:40.822Z,-5.00
2022-12-12T08:15:28.315Z,-5.00
2022-12-12T08:18:16.146Z,-4.60
2022-12-12T08:21:03.504Z,-4.90
2022-12-12T08:23:53.365Z,-4.70
2022-12-12T08:26:41.344Z,-5.00
2022-12-12T08:29:30.766Z,-5.00
2022-12-12T08:32:18.358Z,-5.00
2022-12-12T08:35:05.828Z,-5.00
2022-12-12T08:37:53.098Z,-5.00
2022-12-12T08:40:41.603Z,-5.00
2022-12-12T08:43:29.166Z,-4.90
2022-12-12T08:46:19.250Z,-5.00
2022-12-12T08:49:06.847Z,-4.90
2022-12-12T08:51:55.261Z,-5.20
2022-12-12T08:54:42.488Z,-4.90
2022-12-12T08:57:29.842Z,-4.90
2022-12-12T09:00:18.265Z,-4.80
2022-12-12T09:03:07.295Z,-4.80
2022-12-12T09:05:54.992Z,-4.70
2022-12-12T09:08:43.427Z,-4.60
2022-12-12T09:11:31.221Z,-4.50
2022-12-12T09:14:19.087Z,-4.50
2022-12-12T09:17:06.696Z,-4.30
2022-12-12T09:19:56.174Z,-4.40
2022-12-12T09:22:43.878Z,-4.30
2022-12-12T09:25:31.935Z,-4.20
2022-12-12T09:28:20.130Z,-3.80
2022-12-12T09:31:08.911Z,-4.10
2022-12-12T09:33:56.694Z,-4.10
2022-12-12T09:36:45.334Z,-4.00
2022-12-12T09:39:32.888Z,-4.00
2022-12-12T09:42:24.910Z,-4.00
2022-12-12T09:45:13.151Z,-3.90
2022-12-12T09:48:02.323Z,-3.90
2022-12-12T09:50:50.545Z,-3.70
2022-12-12T09:53:40.285Z,-3.80
2022-12-12T09:56:32.898Z,-3.70
2022-12-12T09:59:23.715Z,-3.70
2022-12-12T10:02:26.104Z,-3.70
2022-12-12T10:05:19.182Z,-3.70
2022-12-12T10:08:11.960Z,-3.60
2022-12-12T10:11:04.358Z,-2.30
2022-12-12T10:13:52.434Z,-3.50
2022-12-12T10:16:41.525Z,-3.50
2022-12-12T10:19:29.769Z,-3.40
2022-12-12T10:22:24.435Z,-3.40
2022-12-12T10:25:20.526Z,-3.30
2022-12-12T10:28:13.051Z,-3.20
2022-12-12T10:31:15.220Z,-3.10
2022-12-12T10:34:07.253Z,-3.10
2022-12-12T10:37:06.725Z,-2.90
2022-12-12T10:39:59.808Z,-2.90
2022-12-12T10:42:49.801Z,-2.80
2022-12-12T10:45:44.601Z,-2.70
2022-12-12T10:48:32.040Z,-2.60
2022-12-12T10:51:20.978Z,-2.50
2022-12-12T10:54:15.257Z,-2.50
2022-12-12T10:57:07.572Z,-2.40
2022-12-12T10:59:55.545Z,-2.40
2022-12-12T11:02:46.838Z,-2.20
2022-12-12T11:05:37.642Z,-2.20
2022-12-12T11:08:29.980Z,-2.10
2022-12-12T11:11:20.222Z,-2.10
2022-12-12T11:14:23.910Z,-2.00
2022-12-12T11:17:21.555Z,-1.30
2022-12-12T11:20:15.776Z,-2.00
2022-12-12T11:23:03.291Z,-2.00
2022-12-12T11:25:56.370Z,-0.80
2022-12-12T11:28:44.986Z,-1.90
2022-12-12T11:31:35.417Z,-1.90
2022-12-12T11:34:24.127Z,-1.80
2022-12-12T11:37:20.179Z,0.70
2022-12-12T11:40:19.434Z,-1.80
2022-12-12T11:43:20.489Z,-1.60
2022-12-12T11:46:09.403Z,-1.30
2022-12-12T11:48:59.407Z,-1.60
2022-12-12T11:51:48.260Z,-1.40
2022-12-12T11:54:37.217Z,-1.60
2022-12-12T11:57:30.100Z,-1.60
2022-12-12T12:00:19.703Z,-1.50
2022-12-12T12:03:27.070Z,-1.50
2022-12-12T12:06:31.790Z,-1.50
2022-12-12T12:09:26.478Z,1.80
2022-12-12T12:12:22.094Z,-1.30
2022-12-12T12:15:22.345Z,-2.30
2022-12-12T12:18:16.437Z,-0.50
2022-12-12T12:21:26.963Z,-1.40
2022-12-12T12:24:35.433Z,-1.10
2022-12-12T12:27:28.402Z,-0.90
2022-12-12T12:30:23.617Z,-1.00
2022-12-12T12:33:27.331Z,-0.90
2022-12-12T12:36:21.338Z,-0.90
2022-12-12T12:39:17.094Z,-0.90
2022-12-12T12:42:12.876Z,-0.90
2022-12-12T12:45:07.587Z,-0.70
2022-12-12T12:48:05.815Z,-0.80
2022-12-12T12:51:03.607Z,-0.90
2022-12-12T12:53:54.199Z,-0.70
2022-12-12T12:56:45.577Z,-0.60
2022-12-12T12:59:36.161Z,-1.00
2022-12-12T13:02:28.507Z,-0.80
2022-12-12T13:05:22.488Z,-0.60
2022-12-12T13:08:18.532Z,-0.90
2022-12-12T13:11:08.361Z,-0.90
2022-12-12T13:13:58.120Z,-0.80
2022-12-12T13:16:47.038Z,-0.80
2022-12-12T13:19:39.098Z,-0.80
2022-12-12T13:22:30.721Z,-0.30
2022-12-12T13:25:23.343Z,-0.70
2022-12-12T13:28:16.264Z,-0.40
2022-12-12T13:31:16.275Z,-0.50
2022-12-12T13:34:11.454Z,-0.50
2022-12-12T13:37:11.430Z,-0.40
2022-12-12T13:40:00.607Z,-1.00
2022-12-12T13:42:53.739Z,0.20
2022-12-12T13:45:49.622Z,0.60
2022-12-12T13:48:47.359Z,0.50
2022-12-12T13:51:41.022Z,0.90
2022-12-12T13:54:47.561Z,1.50
2022-12-12T13:57:36.877Z,-0.10
2022-12-12T14:00:25.298Z,1.40
2022-12-12T14:03:26.253Z,1.40
2022-12-12T14:06:22.543Z,1.20
2022-12-12T14:09:46.294Z,1.10
2022-12-12T14:12:38.641Z,1.20
2022-12-12T14:15:54.664Z,1.10
2022-12-12T14:19:08.111Z,0.90
2022-12-12T14:22:10.068Z,1.80
2022-12-12T14:25:09.519Z,1.20
2022-12-12T14:28:16.024Z,3.60
2022-12-12T14:31:30.569Z,1.30
2022-12-12T14:34:30.307Z,2.10
2022-12-12T14:37:37.613Z,1.70
2022-12-12T14:40:43.477Z,1.90
2022-12-12T14:43:36.675Z,0.60
2022-12-12T14:46:24.764Z,2.10
2022-12-12T14:49:14.805Z,-0.10
2022-12-12T14:52:02.388Z,-0.80
2022-12-12T14:54:51.553Z,-0.60
2022-12-12T14:57:39.537Z,-0.80
2022-12-12T15:00:38.557Z,-0.90
2022-12-12T15:03:36.346Z,-2.10
2022-12-12T15:06:33.244Z,-0.90
2022-12-12T15:12:57.227Z,-1.10
2022-12-12T15:15:46.354Z,-1.40
2022-12-12T15:18:38.027Z,-1.50
2022-12-12T15:21:25.593Z,-1.60
2022-12-12T15:24:22.838Z,-1.70
2022-12-12T15:27:18.180Z,-1.60
2022-12-12T15:30:11.569Z,-1.50
2022-12-12T15:33:01.320Z,-2.00
2022-12-12T15:35:57.899Z,-2.00
2022-12-12T15:39:03.673Z,-1.10
2022-12-12T15:41:54.260Z,-2.10
2022-12-12T15:44:43.623Z,-2.50
2022-12-12T15:47:31.727Z,-2.20
2022-12-12T15:50:22.531Z,-2.20
2022-12-12T15:53:18.984Z,-2.20
2022-12-12T15:56:09.218Z,-2.30
2022-12-12T15:59:18.425Z,-2.40
2022-12-12T16:02:23.692Z,-2.60
2022-12-12T16:05:26.366Z,-2.50
2022-12-12T16:08:36.384Z,-2.50
2022-12-12T16:11:32.698Z,-0.70
2022-12-12T16:14:32.578Z,-2.60
2022-12-12T16:17:27.100Z,-2.60
2022-12-12T16:20:16.212Z,-2.60
2022-12-12T16:23:20.702Z,-2.70
2022-12-12T16:26:12.016Z,-2.50
2022-12-12T16:29:04.410Z,-2.70
2022-12-12T16:31:52.798Z,-2.80
2022-12-12T16:34:40.532Z,-2.70
2022-12-12T16:37:28.810Z,-2.30
2022-12-12T16:40:18.947Z,-2.80
2022-12-12T16:43:11.176Z,-2.90
2022-12-12T16:45:59.318Z,-2.90
2022-12-12T16:48:47.216Z,-2.80
2022-12-12T16:51:35.968Z,-2.90
2022-12-12T16:54:23.579Z,-2.80
2022-12-12T16:57:13.380Z,-3.00
2022-12-12T17:00:01.829Z,-3.10
2022-12-12T17:02:50.200Z,-2.90
2022-12-12T17:05:38.885Z,-3.00
2022-12-12T17:08:27.746Z,-3.20
2022-12-12T17:11:15.621Z,-2.80
2022-12-12T17:14:05.656Z,-2.90
2022-12-12T17:16:57.156Z,-3.20
2022-12-12T17:19:47.753Z,-3.20
2022-12-12T17:22:35.367Z,-3.30
2022-12-12T17:25:23.929Z,-3.30
2022-12-12T17:28:14.823Z,-5.10
2022-12-12T17:31:03.771Z,-3.00
2022-12-12T17:33:51.534Z,-3.40
2022-12-12T17:36:39.949Z,-0.60
2022-12-12T17:39:27.908Z,-3.40
2022-12-12T17:42:16.890Z,-3.50
2022-12-12T17:45:04.364Z,-3.40
2022-12-12T17:47:56.969Z,-3.80
2022-12-12T17:50:44.637Z,-3.60
2022-12-12T17:53:36.847Z,-3.40
2022-12-12T17:56:34.595Z,-3.40
2022-12-12T17:59:22.162Z,-3.50
2022-12-12T18:02:12.077Z,-3.50
2022-12-12T18:05:03.780Z,-3.50
2022-12-12T18:07:55.457Z,-3.50
2022-12-12T18:10:43.614Z,-3.70
2022-12-12T18:13:31.425Z,-3.50
2022-12-12T18:16:20.432Z,-3.60
2022-12-12T18:19:08.046Z,-3.50
2022-12-12T18:22:01.831Z,-3.60
2022-12-12T18:24:50.702Z,-3.40
2022-12-12T18:27:40.514Z,-1.50
2022-12-12T18:30:28.923Z,-3.60
2022-12-12T18:33:16.269Z,-3.30
2022-12-12T18:36:05.093Z,-3.60
2022-12-12T18:38:54.346Z,-3.60
2022-12-12T18:41:43.354Z,-3.60
2022-12-12T18:44:32.184Z,-3.70
2022-12-12T18:47:19.944Z,-3.60
2022-12-12T18:50:07.849Z,-3.60
2022-12-12T18:52:56.236Z,-3.50
2022-12-12T18:55:45.529Z,-3.60
2022-12-12T18:58:34.464Z,-3.60
2022-12-12T19:01:24.898Z,-3.50
2022-12-12T19:04:20.838Z,-3.50
2022-12-12T19:07:13.601Z,-3.50
2022-12-12T19:10:01.098Z,-3.50
2022-12-12T19:12:50.348Z,-3.50
2022-12-12T19:15:38.017Z,-3.50
2022-12-12T19:18:25.956Z,-3.60
2022-12-12T19:21:15.387Z,-3.70
2022-12-12T19:24:04.926Z,-3.70
2022-12-12T19:27:02.627Z,-3.70
2022-12-12T19:29:52.202Z,-3.80
2022-12-12T19:32:39.956Z,-3.80
2022-12-12T19:35:27.471Z,-3.90
2022-12-12T19:38:18.470Z,-3.90
2022-12-12T19:41:09.559Z,-3.90
2022-12-12T19:43:59.618Z,-3.90
2022-12-12T19:46:49.134Z,-3.80
2022-12-12T19:49:37.889Z,-4.00
2022-12-12T19:52:26.000Z,-4.00
2022-12-12T19:55:14.028Z,-4.00
2022-12-12T19:58:04.151Z,-4.30
2022-12-12T20:00:52.183Z,-3.80
2022-12-12T20:03:42.724Z,-3.90
2022-12-12T20:06:30.728Z,-4.20
2022-12-12T20:09:20.788Z,-3.90
2022-12-12T20:12:08.845Z,-4.00
2022-12-12T20:14:57.972Z,-4.00
2022-12-12T20:17:45.463Z,-4.10
2022-12-12T20:20:34.981Z,-4.10
2022-12-12T20:23:22.778Z,-4.20
2022-12-12T20:26:13.228Z,-4.00
2022-12-12T20:29:02.583Z,-4.20
2022-12-12T20:31:50.979Z,-4.10
2022-12-12T20:34:38.717Z,-4.10
2022-12-12T20:37:31.469Z,-4.20
2022-12-12T20:40:19.937Z,-4.20
2022-12-12T20:43:07.457Z,-4.30
2022-12-12T20:45:55.167Z,-5.40
2022-12-12T20:48:43.411Z,-4.40
2022-12-12T20:51:54.579Z,-4.30
2022-12-12T20:54:40.632Z,-4.40
2022-12-12T20:57:27.963Z,-4.40
2022-12-12T21:00:16.558Z,-4.40
2022-12-12T21:03:04.728Z,-4.60
2022-12-12T21:05:53.264Z,-4.50
2022-12-12T21:08:41.416Z,-4.50
2022-12-12T21:11:30.688Z,-4.60
2022-12-12T21:14:19.000Z,-4.60
2022-12-12T21:17:06.658Z,-4.70
2022-12-12T21:19:54.986Z,-4.70
2022-12-12T21:22:42.400Z,-4.70
2022-12-12T21:25:30.909Z,-4.80
2022-12-12T21:28:20.266Z,-4.80
2022-12-12T21:31:08.440Z,-4.80
2022-12-12T21:33:55.669Z,-4.90
2022-12-12T21:36:44.610Z,-4.90
2022-12-12T21:39:32.262Z,-4.90
2022-12-12T21:42:19.785Z,-2.60
2022-12-12T21:45:11.691Z,-5.00
2022-12-12T21:47:59.364Z,-4.90
2022-12-12T21:50:46.602Z,-4.90
2022-12-12T21:53:38.151Z,-4.90
2022-12-12T21:56:26.076Z,-5.00
2022-12-12T21:59:13.919Z,-4.70
2022-12-12T22:02:04.626Z,-4.90
2022-12-12T22:04:52.104Z,-4.80
2022-12-12T22:07:40.352Z,-4.80
2022-12-12T22:10:27.872Z,-4.80
2022-12-12T22:13:15.043Z,-4.80
2022-12-12T22:16:06.737Z,-4.70
2022-12-12T22:18:59.576Z,-4.80
2022-12-12T22:21:51.361Z,-4.80
2022-12-12T22:24:39.051Z,-4.80
2022-12-12T22:27:27.026Z,-4.80
2022-12-12T22:30:15.373Z,-4.80
2022-12-12T22:33:03.613Z,-4.80
2022-12-12T22:35:54.699Z,-4.80
2022-12-12T22:38:42.467Z,-4.90
2022-12-12T22:41:30.725Z,-4.90
2022-12-12T22:44:19.278Z,-3.70
2022-12-12T22:47:07.231Z,-4.90
2022-12-12T22:49:54.723Z,-5.00
2022-12-12T22:52:43.450Z,-5.00
2022-12-12T22:55:31.710Z,-5.10
2022-12-12T22:58:19.038Z,-5.10
2022-12-12T23:01:07.873Z,-5.00
2022-12-12T23:03:56.572Z,-4.90
2022-12-12T23:06:44.459Z,-4.80
2022-12-12T23:09:33.075Z,-4.80
2022-12-12T23:12:20.783Z,-4.80
2022-12-12T23:15:09.926Z,-4.90
2022-12-12T23:17:58.239Z,-5.00
2022-12-12T23:20:46.443Z,-5.00
2022-12-12T23:23:34.463Z,-5.20
2022-12-12T23:26:24.796Z,-5.30
2022-12-12T23:29:16.266Z,-5.10
2022-12-12T23:32:04.690Z,-5.10
2022-12-12T23:34:52.478Z,-5.10
2022-12-12T23:37:40.676Z,-5.20
2022-12-12T23:40:28.370Z,-5.20
2022-12-12T23:43:17.619Z,-5.20
2022-12-12T23:46:06.795Z,-5.20
2022-12-12T23:48:54.915Z,-5.20
2022-12-12T23:51:43.453Z,-5.30
2022-12-12T23:54:33.672Z,-5.30
2022-12-12T23:57:20.987Z,-5.50
